Time;durP1;ratioP1;P1;durP2;ratioP2;P2;SDS_P1;SDS_P2;PMS_P1;PMS_P2;Temp;Humidity;BMP_temperature;BMP_pressure;BME280_temperature;BME280_humidity;BME280_pressure;Samples;Min_cycle;Max_cycle;Signal;HPM_P1;HPM_P2
2022/11/03 00:01:36;;;;;;;0.65;0.65;;;;;;;12.03;60.12;101100.47;5104559;28;20039;-88
2022/11/03 00:04:13;;;;;;;0.20;0.20;;;;;;;11.96;59.85;101097.13;5109056;29;20199;-89
2022/11/03 00:06:46;;;;;;;0.75;0.75;;;;;;;12.02;60.25;101090.88;5083947;28;20084;-89
2022/11/03 00:09:18;;;;;;;1.75;1.50;;;;;;;12.03;60.07;101092.59;5102434;29;20594;-89
2022/11/03 00:11:50;;;;;;;0.30;0.30;;;;;;;11.95;60.41;101085.72;5102542;28;20087;-89
2022/11/03 00:14:20;;;;;;;0.55;0.55;;;;;;;11.95;60.54;101080.47;5118695;29;20044;-89
2022/11/03 00:16:51;;;;;;;0.40;0.40;;;;;;;11.95;60.58;101072.59;5099574;28;20067;-88
2022/11/03 00:19:22;;;;;;;0.30;0.30;;;;;;;11.99;60.03;101073.41;5091234;29;20387;-88
2022/11/03 00:21:52;;;;;;;0.65;0.65;;;;;;;11.93;60.47;101065.66;5083323;28;20050;-89
2022/11/03 00:24:26;;;;;;;0.25;0.25;;;;;;;12.03;60.30;101066.28;5081137;29;20035;-89
2022/11/03 00:26:56;;;;;;;0.90;0.90;;;;;;;12.02;59.91;101054.91;5095738;28;20044;-89
2022/11/03 00:29:26;;;;;;;0.30;0.30;;;;;;;11.96;60.07;101060.31;5101126;29;20135;-87
2022/11/03 00:31:57;;;;;;;0.95;0.60;;;;;;;12.05;60.33;101053.97;5104843;28;20043;-87
2022/11/03 00:34:27;;;;;;;1.45;0.90;;;;;;;12.00;60.24;101056.72;5121234;28;20032;-87
2022/11/03 00:36:58;;;;;;;0.30;0.30;;;;;;;12.01;60.18;101057.59;5119943;28;20062;-90
2022/11/03 00:39:28;;;;;;;0.60;0.60;;;;;;;11.98;60.24;101057.66;5104485;29;20256;-88
2022/11/03 00:41:59;;;;;;;0.30;0.30;;;;;;;11.97;60.52;101048.94;5135150;28;20036;-86
2022/11/03 00:44:29;;;;;;;0.65;0.65;;;;;;;11.96;60.06;101045.38;5133175;28;20100;-88
2022/11/03 00:46:59;;;;;;;0.30;0.30;;;;;;;11.93;60.10;101047.25;5084293;29;20070;-88
2022/11/03 00:49:30;;;;;;;0.50;0.50;;;;;;;11.93;60.17;101041.97;5123130;28;20046;-89
2022/11/03 00:52:04;;;;;;;0.43;0.43;;;;;;;11.93;60.50;101050.75;5088158;29;22978;-87
2022/11/03 00:54:37;;;;;;;0.45;0.35;;;;;;;11.91;60.43;101046.41;5093975;29;20043;-88
2022/11/03 00:57:08;;;;;;;1.25;1.23;;;;;;;11.87;60.43;101045.63;5122674;28;20063;-89
2022/11/03 00:59:38;;;;;;;0.25;0.25;;;;;;;11.94;60.59;101049.81;5107004;29;20485;-88
2022/11/03 01:02:08;;;;;;;0.43;0.43;;;;;;;11.95;60.26;101042.81;5097818;29;20103;-89
2022/11/03 01:07:28;;;;;;;0.20;0.20;;;;;;;11.89;60.72;101038.56;5081921;29;20032;-89
2022/11/03 01:09:58;;;;;;;0.60;0.60;;;;;;;11.90;60.26;101040.31;5070310;29;20425;-88
2022/11/03 01:12:29;;;;;;;3.53;0.95;;;;;;;11.91;60.23;101036.78;5082672;29;20150;-88
2022/11/03 01:15:02;;;;;;;0.30;0.30;;;;;;;11.91;60.62;101026.25;5087706;29;20111;-87
2022/11/03 01:17:32;;;;;;;1.88;0.82;;;;;;;11.93;60.73;101027.09;5120588;28;20356;-88
2022/11/03 01:20:03;;;;;;;0.30;0.30;;;;;;;11.92;61.71;101022.72;5070406;29;20035;-89
2022/11/03 01:22:33;;;;;;;0.57;0.57;;;;;;;11.94;60.70;101014.78;5099273;29;20062;-88
2022/11/03 01:25:04;;;;;;;0.50;0.50;;;;;;;11.89;60.92;101007.03;5080515;29;20497;-88
2022/11/03 01:27:35;;;;;;;0.30;0.30;;;;;;;11.91;60.90;101010.47;5079768;29;20046;-89
2022/11/03 01:30:06;;;;;;;0.82;0.82;;;;;;;11.95;60.56;100998.97;5078133;29;20041;-88
2022/11/03 01:32:36;;;;;;;2.55;0.80;;;;;;;12.00;60.44;101004.13;5083872;29;20564;-89
2022/11/03 01:35:07;;;;;;;0.32;0.32;;;;;;;11.95;60.99;101001.59;5101435;28;20036;-89
2022/11/03 01:37:37;;;;;;;5.85;1.75;;;;;;;11.95;61.30;100991.06;5083235;29;20044;-87
2022/11/03 01:40:08;;;;;;;1.30;1.30;;;;;;;12.06;61.26;100987.31;5116859;29;20141;-88
2022/11/03 01:42:39;;;;;;;0.20;0.20;;;;;;;11.99;61.69;100986.63;5098538;29;20410;-88
2022/11/03 01:45:09;;;;;;;1.27;0.65;;;;;;;11.92;62.20;100980.66;5103235;29;20036;-89
2022/11/03 01:47:41;;;;;;;0.30;0.30;;;;;;;11.96;61.47;100979.66;5098310;29;20079;-88
2022/11/03 01:50:17;;;;;;;0.20;0.20;;;;;;;11.91;61.82;100972.78;5086741;29;20027;-87
2022/11/03 01:52:55;;;;;;;0.30;0.30;;;;;;;11.86;61.75;100975.56;5106575;29;20122;-88
2022/11/03 01:55:35;;;;;;;0.22;0.22;;;;;;;11.89;62.11;100969.38;5099461;29;20607;-89
2022/11/03 01:58:20;;;;;;;0.70;0.70;;;;;;;11.87;63.28;100956.25;5101137;29;20039;-88
2022/11/03 02:00:57;;;;;;;0.55;0.55;;;;;;;11.91;62.25;100955.25;5079945;29;20749;-89
2022/11/03 02:03:38;;;;;;;1.55;1.17;;;;;;;11.82;62.53;100952.91;5097650;29;20071;-88
2022/11/03 02:06:09;;;;;;;0.63;0.63;;;;;;;11.91;62.22;100949.13;5109229;29;20036;-89
2022/11/03 02:08:47;;;;;;;0.50;0.50;;;;;;;11.96;62.25;100949.88;5084487;29;20028;-88
2022/11/03 02:14:27;;;;;;;0.57;0.57;;;;;;;11.92;63.00;100940.34;5100766;28;20043;-89
2022/11/03 02:17:02;;;;;;;0.20;0.20;;;;;;;11.80;63.17;100929.28;5099574;28;20046;-88
2022/11/03 02:19:39;;;;;;;0.77;0.77;;;;;;;11.84;62.88;100932.69;5085514;29;20075;-88
2022/11/03 02:22:35;;;;;;;5.82;2.28;;;;;;;11.87;62.57;100929.09;5098150;28;20040;-88
2022/11/03 02:25:18;;;;;;;0.30;0.30;;;;;;;11.93;63.05;100931.53;5090642;28;20072;-87
2022/11/03 02:27:48;;;;;;;0.55;0.47;;;;;;;11.94;64.01;100920.13;5124144;28;20047;-87
2022/11/03 02:30:18;;;;;;;0.25;0.25;;;;;;;11.91;64.00;100917.56;5087997;29;20971;-88
2022/11/03 02:33:07;;;;;;;1.50;1.25;;;;;;;11.81;64.46;100914.38;5084249;29;20126;-89
2022/11/03 02:35:58;;;;;;;0.30;0.30;;;;;;;11.77;65.54;100904.88;5068379;29;20031;-89
2022/11/03 02:38:33;;;;;;;0.30;0.30;;;;;;;11.76;64.38;100900.50;5114819;28;20040;-90
2022/11/03 02:41:07;;;;;;;2.70;1.95;;;;;;;11.75;64.68;100896.16;5101378;29;20035;-87
2022/11/03 02:43:39;;;;;;;0.35;0.35;;;;;;;11.81;64.37;100888.06;5060466;29;20075;-89
2022/11/03 02:46:11;;;;;;;0.52;0.40;;;;;;;11.73;66.12;100890.06;5105902;29;20057;-90
2022/11/03 02:48:42;;;;;;;0.40;0.40;;;;;;;11.87;64.46;100887.88;5082170;29;20314;-89
2022/11/03 02:51:12;;;;;;;8.57;1.95;;;;;;;11.86;64.30;100880.91;5083408;29;20055;-87
2022/11/03 02:53:55;;;;;;;0.38;0.38;;;;;;;11.78;65.31;100875.00;5075908;29;20036;-89
2022/11/03 02:56:29;;;;;;;0.55;0.55;;;;;;;11.73;65.44;100879.56;5062562;29;20186;-88
2022/11/03 02:59:10;;;;;;;7.72;1.50;;;;;;;11.75;66.39;100872.50;5082616;29;20494;-89
2022/11/03 03:01:49;;;;;;;0.55;0.55;;;;;;;11.63;66.77;100874.56;5098503;28;20474;-89
2022/11/03 03:04:29;;;;;;;0.32;0.32;;;;;;;11.61;67.28;100865.84;5082642;29;20040;-89
2022/11/03 03:07:03;;;;;;;1.05;0.95;;;;;;;11.76;66.01;100861.91;5081115;29;20538;-89
2022/11/03 03:09:40;;;;;;;0.30;0.30;;;;;;;11.78;66.41;100856.59;5097118;29;20035;-89
2022/11/03 03:12:14;;;;;;;0.63;0.63;;;;;;;11.71;66.60;100844.56;5095670;28;20035;-89
2022/11/03 03:14:47;;;;;;;1.38;0.93;;;;;;;11.65;67.19;100850.88;5098068;29;20126;-89
2022/11/03 03:17:27;;;;;;;3.33;1.95;;;;;;;11.69;66.40;100849.03;5082969;29;20564;-89
2022/11/03 03:20:00;;;;;;;0.30;0.30;;;;;;;11.71;66.33;100849.81;5084925;29;20086;-89
2022/11/03 03:22:50;;;;;;;0.30;0.30;;;;;;;11.69;66.82;100844.63;5098092;28;20118;-88
2022/11/03 03:25:33;;;;;;;1.02;0.95;;;;;;;11.61;67.91;100849.25;5062244;29;22754;-89
2022/11/03 03:28:10;;;;;;;0.75;0.75;;;;;;;11.67;67.46;100838.53;5099815;29;20083;-87
2022/11/03 03:30:42;;;;;;;0.75;0.57;;;;;;;11.67;66.87;100835.06;5095086;28;20040;-88
2022/11/03 03:33:14;;;;;;;0.38;0.38;;;;;;;11.64;67.38;100839.50;5085188;29;20135;-89
2022/11/03 03:35:48;;;;;;;0.75;0.70;;;;;;;11.67;67.60;100835.06;5095173;29;20151;-88
2022/11/03 03:38:24;;;;;;;0.20;0.20;;;;;;;11.63;66.92;100831.66;5112008;29;20059;-88
2022/11/03 03:40:58;;;;;;;0.30;0.30;;;;;;;11.75;66.36;100827.81;5114185;29;20027;-88
2022/11/03 03:43:31;;;;;;;0.30;0.30;;;;;;;11.71;66.51;100824.41;5116988;29;20027;-88
2022/11/03 03:46:07;;;;;;;;;;;;;;;11.74;66.67;100823.44;5107704;29;20036;-89
2022/11/03 03:48:38;;;;;;;1.20;1.05;;;;;;;11.75;66.56;100812.88;5122546;28;19927;-89
2022/11/03 03:51:13;;;;;;;0.22;0.22;;;;;;;11.78;65.45;100809.28;5099571;29;20055;-89
2022/11/03 03:53:43;;;;;;;1.33;1.27;;;;;;;11.82;66.27;100805.69;5070113;29;20046;-88
2022/11/03 03:56:14;;;;;;;0.28;0.28;;;;;;;11.78;67.79;100806.66;5104906;29;20035;-88
2022/11/03 03:58:45;;;;;;;0.30;0.30;;;;;;;11.74;67.47;100799.78;5087403;29;20050;-88
2022/11/03 04:01:15;;;;;;;0.38;0.38;;;;;;;11.73;67.42;100805.97;5090309;29;20035;-89
2022/11/03 04:03:46;;;;;;;0.20;0.20;;;;;;;11.78;66.63;100809.28;5085393;29;20593;-88
2022/11/03 04:06:19;;;;;;;0.90;0.52;;;;;;;11.81;66.47;100806.59;5084780;29;20061;-89
2022/11/03 04:08:49;;;;;;;;;;;;;;;11.77;67.74;100802.34;5081142;29;20051;-89
2022/11/03 04:22:37;;;;;;;1.23;0.77;;;;;;;11.81;67.07;100798.69;5061881;29;20087;-88
2022/11/03 04:25:07;;;;;;;2.60;1.45;;;;;;;11.81;66.35;100803.94;5066589;29;20032;-88
2022/11/03 04:27:40;;;;;;;0.35;0.35;;;;;;;11.79;67.05;100797.88;5068102;29;20059;-89
2022/11/03 04:30:16;;;;;;;0.55;0.55;;;;;;;11.78;67.38;100797.03;5067396;29;20486;-88
2022/11/03 04:32:48;;;;;;;0.55;0.55;;;;;;;11.82;67.19;100788.13;5094684;29;20095;-89
2022/11/03 04:35:27;;;;;;;0.55;0.55;;;;;;;11.85;66.74;100784.56;5067810;29;20028;-89
2022/11/03 04:38:00;;;;;;;0.43;0.43;;;;;;;11.80;68.16;100781.19;5095479;29;20047;-88
2022/11/03 04:40:32;;;;;;;0.40;0.40;;;;;;;11.88;67.39;100773.09;5102278;29;20442;-88
2022/11/03 04:43:12;;;;;;;0.35;0.35;;;;;;;11.77;67.87;100773.44;5067914;29;20040;-90
2022/11/03 04:45:44;;;;;;;0.60;0.60;;;;;;;11.82;66.69;100764.47;5087003;29;20043;-87
2022/11/03 04:48:19;;;;;;;0.73;0.73;;;;;;;11.86;67.30;100767.84;5079291;29;20043;-88
2022/11/03 04:50:57;;;;;;;0.20;0.20;;;;;;;11.94;67.47;100757.94;5085835;29;20036;-88
2022/11/03 04:53:31;;;;;;;0.50;0.50;;;;;;;11.82;66.91;100760.97;5107969;28;20050;-89
2022/11/03 04:56:14;;;;;;;1.30;1.20;;;;;;;11.80;67.41;100754.91;5085244;29;20032;-88
2022/11/03 04:58:47;;;;;;;1.65;0.88;;;;;;;11.76;67.75;100753.31;5101131;29;20047;-89
2022/11/03 05:01:20;;;;;;;0.40;0.40;;;;;;;11.83;66.93;100749.56;5085166;29;20046;-88
2022/11/03 05:03:52;;;;;;;;;;;;;;;11.92;67.33;100736.13;5098235;28;20036;-88
2022/11/03 05:06:27;;;;;;;0.20;0.20;;;;;;;11.94;67.00;100736.91;5112589;29;20008;-89
2022/11/03 05:09:01;;;;;;;0.73;0.50;;;;;;;11.88;66.66;100734.50;5119758;28;20094;-86
2022/11/03 05:11:40;;;;;;;1.48;1.38;;;;;;;11.86;68.32;100730.19;5087883;29;20035;-88
2022/11/03 05:14:31;;;;;;;1.05;1.02;;;;;;;11.84;68.24;100726.75;5088803;29;20048;-88
2022/11/03 05:17:04;;;;;;;0.60;0.60;;;;;;;11.86;67.60;100727.56;5108737;29;20043;-88
2022/11/03 05:19:41;;;;;;;0.30;0.30;;;;;;;11.87;67.37;100711.72;5113348;29;20038;-88
2022/11/03 05:22:18;;;;;;;1.05;1.02;;;;;;;11.79;68.87;100713.75;5081166;29;20036;-89
2022/11/03 05:24:59;;;;;;;1.65;0.70;;;;;;;11.78;68.07;100714.66;5067637;29;20048;-89
2022/11/03 05:27:29;;;;;;;0.40;0.40;;;;;;;11.89;67.83;100702.03;5115502;28;20047;-88
2022/11/03 05:30:00;;;;;;;0.75;0.57;;;;;;;11.84;67.86;100703.09;5085972;29;20031;-88
2022/11/03 05:32:33;;;;;;;0.30;0.30;;;;;;;11.83;67.81;100702.25;5097104;29;20035;-87
2022/11/03 05:35:18;;;;;;;0.30;0.30;;;;;;;11.80;68.93;100691.81;5086023;29;20035;-88
2022/11/03 05:37:49;;;;;;;0.30;0.30;;;;;;;11.82;67.63;100682.13;5101087;28;20044;-89
2022/11/03 05:40:23;;;;;;;0.57;0.57;;;;;;;11.82;67.81;100675.06;5097391;29;20035;-88
2022/11/03 05:42:59;;;;;;;0.55;0.55;;;;;;;11.84;68.00;100682.94;5081528;29;20043;-89
2022/11/03 05:45:35;;;;;;;0.68;0.68;;;;;;;11.76;68.80;100679.69;5100491;29;20098;-88
2022/11/03 05:48:39;;;;;;;0.95;0.95;;;;;;;11.82;67.79;100671.59;5098344;28;20114;-89
2022/11/03 05:51:36;;;;;;;0.50;0.50;;;;;;;11.91;67.24;100673.06;5080517;29;20513;-88
2022/11/03 05:54:18;;;;;;;0.80;0.63;;;;;;;11.82;68.76;100669.81;5111068;28;20035;-81
2022/11/03 05:56:49;;;;;;;0.57;0.57;;;;;;;11.79;68.27;100664.69;5110243;28;20050;-83
2022/11/03 05:59:23;;;;;;;1.95;1.00;;;;;;;11.82;69.06;100669.81;5111557;29;20028;-83
2022/11/03 06:01:59;;;;;;;2.38;1.70;;;;;;;11.81;68.98;100660.25;5072800;28;20514;-83
2022/11/03 06:04:37;;;;;;;0.30;0.30;;;;;;;11.88;67.82;100653.00;5091082;29;20107;-83
2022/11/03 06:07:25;;;;;;;0.75;0.75;;;;;;;11.84;67.95;100650.50;5078680;29;20036;-83
2022/11/03 06:09:56;;;;;;;6.88;1.27;;;;;;;11.81;68.08;100648.84;5059920;29;20327;-83
2022/11/03 06:12:29;;;;;;;0.30;0.30;;;;;;;11.84;67.89;100654.03;5073885;29;20123;-82
2022/11/03 06:14:59;;;;;;;0.30;0.30;;;;;;;11.75;68.07;100652.53;5094124;29;20028;-82
2022/11/03 06:17:30;;;;;;;1.38;0.77;;;;;;;11.80;69.10;100639.25;5095871;29;20569;-82
2022/11/03 06:20:00;;;;;;;0.85;0.52;;;;;;;11.84;67.94;100647.88;5071379;29;20388;-83
2022/11/03 06:22:37;;;;;;;0.40;0.40;;;;;;;11.84;67.71;100645.25;5071176;29;20035;-81
2022/11/03 06:25:30;;;;;;;0.38;0.38;;;;;;;11.82;68.21;100643.53;5103690;29;20040;-82
2022/11/03 06:28:05;;;;;;;0.65;0.65;;;;;;;11.86;68.34;100640.81;5093798;28;20447;-82
2022/11/03 06:30:39;;;;;;;1.40;0.73;;;;;;;11.88;67.88;100637.22;5064249;29;20035;-83
2022/11/03 06:33:28;;;;;;;0.38;0.38;;;;;;;11.91;67.90;100626.59;5089284;28;20573;-83
2022/11/03 06:36:05;;;;;;;0.40;0.40;;;;;;;11.98;67.73;100626.41;5090169;29;20042;-82
2022/11/03 06:38:35;;;;;;;22.33;1.65;;;;;;;11.84;68.47;100619.84;5092048;29;20036;-83
2022/11/03 06:41:18;;;;;;;0.30;0.30;;;;;;;11.88;67.92;100616.19;5093151;29;20042;-83
2022/11/03 06:43:48;;;;;;;0.30;0.30;;;;;;;11.82;68.03;100605.88;5074546;29;20361;-83
2022/11/03 06:46:24;;;;;;;0.30;0.30;;;;;;;11.86;67.77;100594.34;5109323;29;20111;-81
2022/11/03 06:48:58;;;;;;;0.40;0.40;;;;;;;11.80;69.06;100595.44;5104757;28;20040;-83
2022/11/03 06:51:29;;;;;;;0.30;0.30;;;;;;;11.81;67.92;100588.38;5109914;28;20513;-84
2022/11/03 06:54:00;;;;;;;0.30;0.30;;;;;;;11.77;68.80;100592.06;5082979;29;20035;-81
2022/11/03 06:56:35;;;;;;;0.20;0.20;;;;;;;11.75;68.69;100593.88;5096382;28;20031;-82
2022/11/03 06:59:08;;;;;;;0.43;0.43;;;;;;;11.91;68.21;100591.56;5077779;29;20150;-83
2022/11/03 07:01:39;;;;;;;1.15;1.00;;;;;;;11.90;68.35;100582.81;5063516;28;20044;-82
2022/11/03 07:04:22;;;;;;;0.20;0.20;;;;;;;11.85;69.15;100579.50;5092579;29;20512;-83
2022/11/03 07:06:58;;;;;;;0.20;0.20;;;;;;;11.79;69.78;100582.31;5096948;28;20102;-83
2022/11/03 07:09:28;;;;;;;0.20;0.20;;;;;;;11.85;68.51;100584.75;5094858;29;20053;-83
2022/11/03 07:11:59;;;;;;;1.75;0.63;;;;;;;11.86;68.64;100581.19;5089316;29;20118;-81
2022/11/03 07:14:32;;;;;;;0.40;0.40;;;;;;;11.84;69.52;100576.91;5108093;29;20024;-83
2022/11/03 07:17:05;;;;;;;0.57;0.45;;;;;;;11.84;68.76;100575.16;5095241;28;20044;-82
2022/11/03 07:19:39;;;;;;;0.30;0.30;;;;;;;11.93;69.17;100566.06;5073871;29;20060;-82
2022/11/03 07:22:16;;;;;;;0.30;0.30;;;;;;;11.91;68.18;100571.41;5093807;29;20039;-84
2022/11/03 07:24:53;;;;;;;0.43;0.43;;;;;;;11.86;69.32;100557.53;5094622;28;20719;-83
2022/11/03 07:27:35;;;;;;;0.50;0.50;;;;;;;11.89;69.03;100559.22;5094774;29;20053;-83
2022/11/03 07:30:14;;;;;;;0.95;0.82;;;;;;;11.91;69.38;100558.25;5096567;29;20130;-83
2022/11/03 07:32:46;;;;;;;2.45;1.10;;;;;;;12.02;69.00;100557.06;5111872;28;20615;-82
2022/11/03 07:35:16;;;;;;;0.45;0.45;;;;;;;11.93;70.46;100560.81;5097011;29;20028;-83
2022/11/03 07:37:49;;;;;;;3.83;1.40;;;;;;;11.98;69.87;100558.94;5106875;28;20525;-82
2022/11/03 07:40:25;;;;;;;2.28;1.20;;;;;;;11.97;70.24;100557.22;5114161;28;20032;-82
2022/11/03 07:42:59;;;;;;;0.20;0.20;;;;;;;11.97;69.54;100541.44;5080869;29;20055;-82
2022/11/03 07:45:47;;;;;;;4.68;1.33;;;;;;;11.98;70.04;100539.66;5081743;29;20035;-83
2022/11/03 07:48:50;;;;;;;0.55;0.55;;;;;;;11.96;70.27;100550.19;5094139;29;20044;-82
2022/11/03 07:51:33;;;;;;;0.30;0.30;;;;;;;12.04;69.49;100542.06;5113019;29;20031;-83
2022/11/03 07:54:29;;;;;;;0.45;0.45;;;;;;;12.03;70.29;100545.59;5093435;29;20276;-82
2022/11/03 07:57:12;;;;;;;0.30;0.30;;;;;;;12.00;70.25;100529.94;5079036;29;20103;-82
2022/11/03 07:59:46;;;;;;;0.63;0.63;;;;;;;12.10;70.05;100536.59;5098129;29;20436;-83
2022/11/03 08:02:37;;;;;;;0.68;0.68;;;;;;;12.15;69.64;100526.75;5074477;29;20040;-83
2022/11/03 08:05:08;;;;;;;0.65;0.65;;;;;;;12.14;69.88;100527.66;5097402;29;20478;-83
2022/11/03 08:07:38;;;;;;;0.30;0.30;;;;;;;12.15;69.40;100526.75;5093739;29;20071;-82
2022/11/03 08:10:09;;;;;;;0.80;0.50;;;;;;;12.16;69.55;100525.84;5083515;29;20040;-83
2022/11/03 08:12:39;;;;;;;3.72;0.57;;;;;;;12.27;69.42;100528.06;5111124;29;20042;-83
2022/11/03 08:15:10;;;;;;;0.40;0.40;;;;;;;12.21;69.66;100525.66;5097718;29;20054;-83
2022/11/03 08:17:41;;;;;;;0.30;0.30;;;;;;;12.15;70.21;100523.28;5095441;29;20043;-81
2022/11/03 08:20:11;;;;;;;0.22;0.22;;;;;;;12.25;69.37;100514.97;5098710;28;20035;-83
2022/11/03 08:22:42;;;;;;;3.60;0.80;;;;;;;12.26;69.76;100515.81;5093171;29;20561;-83
2022/11/03 08:25:12;;;;;;;2.08;0.95;;;;;;;12.35;68.88;100509.38;5095495;29;20522;-82
2022/11/03 08:27:43;;;;;;;0.22;0.22;;;;;;;12.34;69.00;100513.75;5081653;29;20047;-82
2022/11/03 08:30:13;;;;;;;0.98;0.55;;;;;;;12.34;69.14;100510.28;5091640;29;20039;-82
2022/11/03 08:32:44;;;;;;;0.40;0.40;;;;;;;12.36;69.10;100497.91;5093583;29;20040;-82
2022/11/03 08:35:14;;;;;;;0.40;0.40;;;;;;;12.34;69.53;100499.78;5094500;29;20506;-82
2022/11/03 08:37:45;;;;;;;0.47;0.47;;;;;;;12.39;69.22;100482.03;5065773;29;20044;-82
2022/11/03 08:40:15;;;;;;;0.30;0.30;;;;;;;12.40;69.49;100478.47;5110106;28;20035;-81
2022/11/03 08:42:46;;;;;;;0.20;0.20;;;;;;;12.45;69.28;100473.88;5064924;29;20043;-81
2022/11/03 08:45:16;;;;;;;0.75;0.75;;;;;;;12.42;69.18;100477.50;5095461;29;20036;-81
2022/11/03 08:47:47;;;;;;;7.03;1.48;;;;;;;12.51;69.23;100467.53;5134451;28;20047;-80
2022/11/03 08:50:17;;;;;;;0.88;0.85;;;;;;;12.46;69.17;100469.50;5133118;29;20031;-81
2022/11/03 08:52:48;;;;;;;0.57;0.57;;;;;;;12.43;69.07;100455.53;5125660;28;20047;-81
2022/11/03 08:55:18;;;;;;;0.45;0.45;;;;;;;12.45;69.31;100458.09;5119329;29;20035;-80
2022/11/03 08:57:49;;;;;;;0.32;0.32;;;;;;;12.51;68.83;100460.50;5121990;28;20286;-81
2022/11/03 09:00:19;;;;;;;10.32;2.30;;;;;;;12.49;69.52;100449.19;5120888;28;20103;-82
2022/11/03 09:02:50;;;;;;;0.40;0.40;;;;;;;12.52;68.92;100456.09;5100758;29;20397;-82
2022/11/03 09:05:20;;;;;;;0.30;0.30;;;;;;;12.49;69.04;100458.81;5113234;28;20197;-82
2022/11/03 09:07:51;;;;;;;2.70;1.55;;;;;;;12.55;68.57;100454.19;5094064;29;20051;-83
2022/11/03 09:10:21;;;;;;;0.20;0.20;;;;;;;12.50;69.30;100448.25;5080666;29;20077;-83
2022/11/03 09:12:53;;;;;;;0.30;0.30;;;;;;;12.51;69.19;100431.56;5111301;28;20130;-83
2022/11/03 09:15:23;;;;;;;0.68;0.68;;;;;;;12.56;69.50;100432.22;5100235;28;20040;-82
2022/11/03 09:17:53;;;;;;;0.47;0.47;;;;;;;12.60;68.82;100410.09;5083038;29;20048;-83
2022/11/03 09:20:24;;;;;;;1.42;1.05;;;;;;;12.65;68.81;100411.72;5107794;28;20035;-81
2022/11/03 09:22:54;;;;;;;1.38;1.27;;;;;;;12.68;68.79;100414.22;5103384;28;20063;-81
2022/11/03 09:25:25;;;;;;;0.30;0.30;;;;;;;12.65;69.15;100398.56;5116056;28;20208;-83
2022/11/03 09:27:55;;;;;;;1.15;1.15;;;;;;;12.78;68.88;100396.28;5106097;29;20040;-82
2022/11/03 09:30:26;;;;;;;0.30;0.30;;;;;;;12.86;68.74;100386.28;5094563;29;20023;-81
2022/11/03 09:32:56;;;;;;;0.55;0.55;;;;;;;12.78;68.78;100370.78;5078155;29;20634;-81
2022/11/03 09:35:27;;;;;;;1.75;0.95;;;;;;;12.79;69.28;100367.25;5095587;29;20023;-81
2022/11/03 09:37:57;;;;;;;1.45;0.77;;;;;;;12.83;68.91;100362.69;5088394;29;20051;-83
2022/11/03 09:40:27;;;;;;;0.50;0.50;;;;;;;12.91;68.77;100353.56;5095286;29;20529;-82
2022/11/03 09:42:58;;;;;;;0.32;0.32;;;;;;;12.85;68.86;100351.19;5095182;28;20480;-83
2022/11/03 09:45:28;;;;;;;0.77;0.77;;;;;;;12.94;68.52;100336.78;5097414;29;20043;-82
2022/11/03 09:48:00;;;;;;;0.35;0.35;;;;;;;12.90;68.78;100330.78;5063980;29;20239;-82
2022/11/03 09:50:30;;;;;;;0.30;0.30;;;;;;;12.95;68.11;100324.47;5106658;28;20036;-81
2022/11/03 09:53:01;;;;;;;0.40;0.40;;;;;;;12.93;68.17;100324.53;5118068;28;20302;-80
2022/11/03 09:55:32;;;;;;;0.32;0.32;;;;;;;13.00;67.74;100311.97;5095330;29;20418;-83
2022/11/03 09:58:12;;;;;;;1.98;0.85;;;;;;;12.99;67.22;100300.56;5084819;29;20110;-80
2022/11/03 10:00:44;;;;;;;0.20;0.20;;;;;;;13.07;67.38;100313.41;5120973;28;20593;-82
2022/11/03 10:03:16;;;;;;;0.30;0.30;;;;;;;13.05;67.52;100309.97;5103160;29;20132;-83
2022/11/03 10:05:47;;;;;;;0.60;0.60;;;;;;;13.07;66.79;100305.50;5067310;29;20417;-83
2022/11/03 10:08:24;;;;;;;0.60;0.60;;;;;;;13.11;66.63;100317.59;5118741;28;20280;-82
2022/11/03 10:10:55;;;;;;;0.40;0.40;;;;;;;13.15;66.45;100302.50;5067608;29;20035;-82
2022/11/03 10:13:33;;;;;;;0.45;0.45;;;;;;;13.16;66.42;100299.81;5100644;29;20043;-83
2022/11/03 10:16:07;;;;;;;0.20;0.20;;;;;;;13.22;66.10;100302.19;5068499;29;20099;-81
2022/11/03 10:18:38;;;;;;;3.20;1.42;;;;;;;13.23;65.63;100290.72;5112147;28;20055;-82
2022/11/03 10:21:17;;;;;;;0.40;0.40;;;;;;;13.30;65.57;100293.94;5098071;29;20496;-82
2022/11/03 10:23:49;;;;;;;0.40;0.40;;;;;;;13.28;65.53;100279.09;5081165;29;20048;-83
2022/11/03 10:26:20;;;;;;;0.40;0.40;;;;;;;13.34;65.24;100268.31;5101717;29;20039;-81
2022/11/03 10:29:09;;;;;;;1.02;0.95;;;;;;;13.43;65.24;100259.97;5096222;29;20035;-84
2022/11/03 10:31:41;;;;;;;1.25;0.98;;;;;;;13.37;65.13;100252.34;5095896;28;20031;-81
2022/11/03 10:34:26;;;;;;;0.38;0.38;;;;;;;13.44;65.13;100253.78;5097890;28;20411;-83
2022/11/03 10:37:23;;;;;;;1.15;0.95;;;;;;;13.44;65.36;100248.53;5098772;28;20035;-83
2022/11/03 10:39:57;;;;;;;0.20;0.20;;;;;;;13.54;64.47;100223.44;5109620;28;20036;-82
2022/11/03 10:42:29;;;;;;;0.20;0.20;;;;;;;13.56;64.66;100212.81;5095025;28;20562;-82
2022/11/03 10:45:17;;;;;;;0.40;0.40;;;;;;;13.56;64.90;100183.84;5094118;29;20161;-82
2022/11/03 10:48:05;;;;;;;3.83;0.88;;;;;;;13.57;64.80;100195.25;5113942;28;20048;-82
2022/11/03 10:50:39;;;;;;;0.45;0.45;;;;;;;13.61;64.54;100180.97;5080485;29;20031;-83
2022/11/03 10:53:15;;;;;;;;;;;;;;;13.60;64.83;100192.44;5105883;29;20031;-83
2022/11/03 10:55:46;;;;;;;0.55;0.55;;;;;;;13.64;64.59;100180.84;5114667;29;19925;-83
2022/11/03 10:58:17;;;;;;;0.25;0.25;;;;;;;13.70;64.04;100191.06;5082088;29;20036;-84
2022/11/03 11:00:47;;;;;;;0.75;0.75;;;;;;;13.74;64.36;100203.19;5080675;29;20077;-83
2022/11/03 11:03:18;;;;;;;0.52;0.40;;;;;;;13.70;64.66;100212.16;5080312;29;20048;-83
2022/11/03 11:05:48;;;;;;;0.45;0.45;;;;;;;13.79;63.84;100208.25;5078361;29;20044;-82
2022/11/03 11:08:22;;;;;;;0.50;0.50;;;;;;;13.80;64.16;100202.06;5079462;29;20063;-82
2022/11/03 11:10:53;;;;;;;0.30;0.30;;;;;;;13.84;63.36;100204.44;5114551;29;20036;-84
2022/11/03 11:13:26;;;;;;;0.30;0.30;;;;;;;13.83;63.65;100197.47;5090045;29;20113;-83
2022/11/03 11:15:57;;;;;;;;;;;;;;;13.88;63.05;100188.47;5084673;29;20334;-83
2022/11/03 11:18:28;;;;;;;0.45;0.45;;;;;;;14.00;63.67;100183.44;5090716;28;20017;-90
2022/11/03 11:21:31;;;;;;;2.08;0.85;;;;;;;13.94;64.04;100169.69;5086654;29;20118;-90
2022/11/03 11:24:02;;;;;;;0.73;0.55;;;;;;;13.97;62.97;100183.59;5059547;29;20522;-90
2022/11/03 11:26:33;;;;;;;0.28;0.28;;;;;;;14.02;63.78;100188.63;5075784;28;20036;-88
2022/11/03 11:29:10;;;;;;;0.38;0.38;;;;;;;14.04;63.21;100181.50;5062955;29;20134;-83
2022/11/03 11:31:41;;;;;;;0.20;0.20;;;;;;;14.08;63.99;100175.16;5091822;28;20031;-87
2022/11/03 11:34:35;;;;;;;0.22;0.22;;;;;;;14.10;63.83;100157.44;5113215;29;20122;-83
2022/11/03 11:37:06;;;;;;;0.68;0.68;;;;;;;14.05;64.08;100132.25;5120214;28;20080;-82
2022/11/03 11:39:42;;;;;;;1.17;0.93;;;;;;;14.13;63.40;100130.09;5087696;29;20050;-84
2022/11/03 11:42:14;;;;;;;0.32;0.32;;;;;;;14.21;63.30;100132.31;5075291;29;20039;-84
2022/11/03 11:45:01;;;;;;;5.15;0.65;;;;;;;14.15;63.65;100122.91;5094669;29;20100;-84
2022/11/03 11:47:33;;;;;;;0.35;0.35;;;;;;;14.26;63.31;100112.66;5088087;29;20042;-84
2022/11/03 11:50:10;;;;;;;0.20;0.20;;;;;;;14.17;63.62;100111.34;5070273;29;20856;-84
2022/11/03 11:52:43;;;;;;;0.20;0.20;;;;;;;14.16;63.24;100099.13;5062621;29;20401;-84
2022/11/03 11:55:46;;;;;;;0.77;0.77;;;;;;;14.12;63.85;100081.72;5113641;28;20572;-84
2022/11/03 11:58:28;;;;;;;0.20;0.20;;;;;;;14.14;63.68;100071.94;5083078;29;20267;-85
2022/11/03 12:01:02;;;;;;;0.20;0.20;;;;;;;14.09;64.04;100068.69;5066548;29;20343;-84
2022/11/03 12:03:35;;;;;;;;;;;;;;;14.08;64.32;100051.19;5075695;29;20302;-84
2022/11/03 12:06:06;;;;;;;0.77;0.77;;;;;;;14.15;64.06;100049.91;5099999;29;20373;-84
2022/11/03 12:08:36;;;;;;;0.25;0.25;;;;;;;14.12;64.51;100057.16;5098584;28;20032;-83
2022/11/03 12:11:10;;;;;;;0.28;0.28;;;;;;;14.17;64.08;100052.47;5095787;29;20043;-83
2022/11/03 12:13:47;;;;;;;0.50;0.50;;;;;;;14.20;64.43;100040.88;5095465;29;20668;-85
2022/11/03 12:16:33;;;;;;;1.55;1.00;;;;;;;14.19;64.24;100026.88;5081316;29;20557;-84
2022/11/03 12:19:41;;;;;;;0.75;0.75;;;;;;;14.12;64.63;100018.41;5058804;29;20056;-84